Flight Track Log - Related Links

Times and Time Zones

All times are in EDT time to prevent confusion due to time zone crossing. See the UCA3596 flight status page for this flight to view local times or setup timezone preferences in your user account.

Time Position Orientation Groundspeed Altitude Reporting Facility
EDT Latitude Longitude Course Direction KTS MPH feet Rate Location/Type
Fri 01:11:00 PM 39.5744 -77.1869 19° North  Level Estimated
Fri 01:12:00 PM 39.6441 -77.1563 19° North  Level Estimated
Fri 01:13:00 PM 39.7137 -77.1256 19° North  Level Estimated
Fri 01:14:00 PM 39.7833 -77.0948 19° North  Level Estimated
Fri 01:15:00 PM 39.8529 -77.0640 19° North  Level Estimated
Fri 01:16:00 PM 39.9225 -77.0331 19° North  Level Estimated
Fri 01:17:00 PM 39.9921 -77.0022 19° North  Level Estimated
Fri 01:18:00 PM 40.0617 -76.9712 19° North  Level Estimated
Fri 01:19:00 PM 40.1312 -76.9401 19° North  Level Estimated
Fri 01:20:00 PM 40.2008 -76.9089 19° North  Level Estimated
Fri 01:21:00 PM 40.2703 -76.8777 19° North  Level Estimated
Fri 01:22:00 PM 40.3399 -76.8465 19° North  Level Estimated
Fri 01:23:00 PM 40.4094 -76.8151 19° North  Level Estimated
Fri 01:24:00 PM 40.4790 -76.7837 19° North  Level Estimated
Fri 01:25:00 PM 40.5485 -76.7523 19° North  Level Estimated
Fri 01:26:00 PM 40.6180 -76.7207 19° North  Level Estimated
Fri 01:27:00 PM 40.6875 -76.6891 19° North  Level Estimated
Fri 01:28:00 PM 40.7570 -76.6575 19° North  Level Estimated
Fri 01:29:00 PM 40.8265 -76.6257 19° North  Level Estimated
Fri 01:30:00 PM 40.8959 -76.5940 19° North  Level Estimated
Fri 01:31:00 PM 40.9654 -76.5621 19° North  Level Estimated
Fri 01:32:00 PM 41.0349 -76.5302 19° North  Level Estimated
Fri 01:33:00 PM 41.1043 -76.4982 19° North  Level Estimated
Fri 01:34:00 PM 41.1738 -76.4661 19° North  Level Estimated
Fri 01:35:00 PM 41.2432 -76.4340 19° North  Level Estimated
Fri 01:36:00 PM 41.3126 -76.4018 19° North  Level Estimated
Fri 01:37:00 PM 41.3820 -76.3695 19° North  Level Estimated
Fri 01:38:00 PM 41.4514 -76.3372 19° North  Level Estimated
Fri 01:39:00 PM 41.5208 -76.3048 19° North  Level Estimated
Fri 01:40:00 PM 41.5902 -76.2723 19° North  Level Estimated
Fri 01:41:00 PM 41.6596 -76.2397 19° North  Level Estimated
Fri 01:42:00 PM 41.7290 -76.2071 19° North  Level Estimated
Fri 01:43:00 PM 41.7983 -76.1744 19° North  Level Estimated
Fri 01:44:00 PM 41.8677 -76.1417 19° North  Level Estimated
Fri 01:45:00 PM 41.9370 -76.1088 19° North  Level Estimated
Fri 01:46:00 PM 42.0063 -76.0759 19° North  Level Estimated
Fri 01:47:00 PM 42.0756 -76.0430 19° North  Level Estimated
Fri 01:48:00 PM 42.1450 -76.0099 19° North  Level Estimated
Fri 01:49:00 PM 42.2084 -75.9796 19° North  Level Estimated
Fri 01:50:00 PM 42.2084 -75.9796 35° Northeast  Level Estimated
Fri 01:51:00 PM 42.2084 -75.9796 35° Northeast  Level Estimated
Fri 01:52:00 PM 42.2084 -75.9796 35° Northeast  Level Estimated
Fri 01:53:00 PM 42.2084 -75.9796 35° Northeast  Level Estimated
Fri 01:54:00 PM 42.2084 -75.9796 35° Northeast  Level Estimated
Fri 01:55:00 PM 42.2084 -75.9796 35° Northeast  Level Estimated

Login

Don't have an account? Register now (free) for customized features, flight alerts, and more!